Time;durP1;ratioP1;P1;durP2;ratioP2;P2;SDS_P1;SDS_P2;PMS_P1;PMS_P2;Temp;Humidity;BMP_temperature;BMP_pressure;BME280_temperature;BME280_humidity;BME280_pressure;Samples;Min_cycle;Max_cycle;Signal;HPM_P1;HPM_P2
2023/07/16 00:01:04;;;;;;;3.80;1.70;;;;;;;17.29;100.00;100193.94;104857;1268;61256;-69
2023/07/16 00:03:31;;;;;;;3.60;1.80;;;;;;;17.29;100.00;100194.98;104513;1266;61283;-62
2023/07/16 00:05:59;;;;;;;5.30;2.50;;;;;;;17.29;100.00;100192.98;104739;1265;72397;-65
2023/07/16 00:08:26;;;;;;;3.00;1.80;;;;;;;17.28;100.00;100190.23;104544;1268;67221;-63
2023/07/16 00:10:53;;;;;;;3.60;1.50;;;;;;;17.26;100.00;100189.17;104525;1265;72603;-69
2023/07/16 00:13:21;;;;;;;4.50;1.90;;;;;;;17.26;100.00;100189.08;105465;1268;61300;-69
2023/07/16 00:15:48;;;;;;;5.20;2.00;;;;;;;17.27;100.00;100186.34;104606;1265;61693;-63
2023/07/16 00:18:15;;;;;;;4.30;2.10;;;;;;;17.24;100.00;100188.13;104475;1269;74778;-63
2023/07/16 00:20:42;;;;;;;2.70;1.60;;;;;;;17.22;100.00;100188.23;104724;1266;67220;-64
2023/07/16 00:23:09;;;;;;;2.80;1.40;;;;;;;17.21;100.00;100188.17;104359;1268;72596;-69
2023/07/16 00:25:36;;;;;;;3.70;1.60;;;;;;;17.20;100.00;100187.67;104213;1265;62629;-63
2023/07/16 00:28:03;;;;;;;4.20;1.90;;;;;;;17.20;100.00;100188.89;104586;1268;61249;-63
2023/07/16 00:30:31;;;;;;;3.10;1.60;;;;;;;17.19;100.00;100189.48;104765;1265;72966;-64
2023/07/16 00:32:59;;;;;;;5.70;1.70;;;;;;;17.16;100.00;100191.14;105223;1265;67411;-63
2023/07/16 00:35:26;;;;;;;3.70;1.80;;;;;;;17.12;100.00;100192.43;104924;1271;72727;-70
2023/07/16 00:37:53;;;;;;;6.00;1.60;;;;;;;17.07;100.00;100191.20;104583;1268;61263;-63
2023/07/16 00:40:20;;;;;;;4.40;1.90;;;;;;;17.01;100.00;100190.28;104549;1268;61358;-65
2023/07/16 00:42:47;;;;;;;3.80;1.90;;;;;;;16.98;100.00;100190.98;104555;1265;74731;-65
2023/07/16 00:45:14;;;;;;;5.80;1.70;;;;;;;16.94;100.00;100193.11;104858;1265;67569;-70
2023/07/16 00:47:42;;;;;;;4.60;1.80;;;;;;;16.91;100.00;100193.65;104826;1265;73167;-63
2023/07/16 00:50:12;;;;;;;4.60;1.50;;;;;;;16.88;100.00;100191.21;104465;1270;61247;-63
2023/07/16 00:52:40;;;;;;;6.00;2.30;;;;;;;16.86;100.00;100191.81;104547;1265;61130;-65
2023/07/16 00:55:08;;;;;;;3.60;2.00;;;;;;;16.86;100.00;100186.59;104666;1266;74842;-65
2023/07/16 00:57:38;;;;;;;7.40;2.00;;;;;;;16.86;100.00;100190.36;104718;1265;67792;-63
2023/07/16 01:00:07;;;;;;;2.60;1.50;;;;;;;16.85;100.00;100186.80;104156;1271;71344;-63
2023/07/16 01:02:34;;;;;;;4.70;1.60;;;;;;;16.84;100.00;100186.11;104566;1265;62551;-65
2023/07/16 01:05:01;;;;;;;4.10;1.90;;;;;;;16.83;100.00;100186.19;105243;1265;61297;-63
2023/07/16 01:07:29;;;;;;;3.30;1.70;;;;;;;16.82;100.00;100185.11;104987;1265;74391;-69
2023/07/16 01:09:57;;;;;;;3.90;1.70;;;;;;;16.81;100.00;100186.14;104522;1265;67965;-64
2023/07/16 01:12:25;;;;;;;3.90;2.10;;;;;;;16.78;100.00;100185.61;104582;1270;72504;-63
2023/07/16 01:14:52;;;;;;;5.20;2.50;;;;;;;16.76;100.00;100186.70;104560;1269;61987;-64
2023/07/16 01:17:19;;;;;;;5.40;2.20;;;;;;;16.73;100.00;100190.08;105137;1270;61321;-69
2023/07/16 01:19:46;;;;;;;4.30;2.10;;;;;;;16.70;100.00;100186.11;104236;1270;75348;-63
2023/07/16 01:22:42;;;;;;;3.80;1.90;;;;;;;16.67;100.00;100187.04;104587;1268;66094;-63
2023/07/16 01:25:14;;;;;;;4.20;1.90;;;;;;;16.64;100.00;100185.86;104645;1267;73214;-69
2023/07/16 01:27:41;;;;;;;;;;;;;;;16.61;100.00;100186.23;105086;1269;61402;-64
2023/07/16 01:30:11;;;;;;;5.10;2.00;;;;;;;16.60;100.00;100185.58;104634;1270;61166;-63
2023/07/16 01:32:38;;;;;;;3.20;1.90;;;;;;;16.56;100.00;100181.65;104902;1265;74498;-69
2023/07/16 01:35:06;;;;;;;4.20;2.20;;;;;;;16.54;100.00;100185.27;104833;1271;65046;-65
2023/07/16 01:37:33;;;;;;;6.30;2.40;;;;;;;16.53;100.00;100186.10;104986;1270;73089;-63
2023/07/16 01:40:01;;;;;;;3.50;1.70;;;;;;;16.53;100.00;100189.88;104695;1268;61653;-62
2023/07/16 01:42:28;;;;;;;4.50;2.10;;;;;;;16.51;100.00;100193.94;104664;1271;61333;-62
2023/07/16 01:44:56;;;;;;;6.30;2.00;;;;;;;16.51;100.00;100192.08;104808;1266;73169;-62
2023/07/16 01:47:29;;;;;;;4.30;2.00;;;;;;;16.50;100.00;100188.33;105277;1265;67043;-63
2023/07/16 01:49:56;;;;;;;3.60;1.70;;;;;;;16.49;100.00;100189.73;104891;1266;72539;-63
2023/07/16 01:52:23;;;;;;;5.50;2.00;;;;;;;16.48;100.00;100193.02;104659;1267;61354;-63
2023/07/16 01:54:50;;;;;;;4.10;1.70;;;;;;;16.46;100.00;100192.48;104619;1265;61243;-64
2023/07/16 01:57:21;;;;;;;6.90;2.10;;;;;;;16.44;100.00;100190.15;104635;1268;74557;-63
2023/07/16 01:59:48;;;;;;;3.90;2.10;;;;;;;16.42;100.00;100194.06;105068;1265;67079;-63
2023/07/16 02:02:16;;;;;;;4.90;2.40;;;;;;;16.42;100.00;100197.55;104571;1268;72693;-62
2023/07/16 02:04:46;;;;;;;4.50;2.00;;;;;;;16.48;100.00;100200.34;104744;1266;62432;-63
2023/07/16 02:07:13;;;;;;;6.00;2.10;;;;;;;16.64;100.00;100200.01;104882;1268;61901;-70
2023/07/16 02:09:40;;;;;;;4.30;2.10;;;;;;;16.86;100.00;100201.33;104943;1265;73491;-64
2023/07/16 02:12:08;;;;;;;3.70;2.40;;;;;;;17.14;100.00;100203.33;104526;1269;65917;-62
2023/07/16 02:14:35;;;;;;;3.40;2.10;;;;;;;17.48;100.00;100207.47;104574;1269;71508;-64
2023/07/16 02:17:02;;;;;;;3.80;2.00;;;;;;;17.84;100.00;100204.38;105039;1266;61546;-63
2023/07/16 02:19:29;;;;;;;6.30;2.80;;;;;;;18.21;100.00;100204.54;104748;1265;61178;-63
2023/07/16 02:21:56;;;;;;;7.70;4.40;;;;;;;18.58;100.00;100194.41;104570;1265;73592;-64
2023/07/16 02:24:23;;;;;;;9.00;6.80;;;;;;;18.94;100.00;100190.04;104735;1269;64913;-63
2023/07/16 02:26:51;;;;;;;8.30;4.50;;;;;;;19.32;100.00;100186.50;105127;1271;71564;-62
2023/07/16 02:29:19;;;;;;;32.40;24.50;;;;;;;19.76;100.00;100183.46;104568;1265;61334;-65
2023/07/16 02:31:48;;;;;;;17.10;10.30;;;;;;;20.26;100.00;100179.41;104227;1271;61384;-63
2023/07/16 02:34:16;;;;;;;14.20;11.90;;;;;;;20.78;100.00;100171.45;104862;1269;74627;-63
2023/07/16 02:36:43;;;;;;;52.00;47.20;;;;;;;21.28;100.00;100163.98;105141;1265;67201;-68
2023/07/16 02:39:10;;;;;;;22.10;20.30;;;;;;;21.77;100.00;100157.83;104786;1269;71217;-64
2023/07/16 02:41:37;;;;;;;17.70;16.10;;;;;;;22.26;100.00;100151.04;104910;1270;61277;-63
2023/07/16 02:44:05;;;;;;;8.20;6.90;;;;;;;22.73;100.00;100149.08;104533;1269;61159;-64
2023/07/16 02:46:32;;;;;;;4.00;3.10;;;;;;;23.16;100.00;100145.60;104906;1271;74825;-64
2023/07/16 02:49:00;;;;;;;4.20;2.10;;;;;;;23.52;100.00;100144.92;105199;1266;67131;-65
2023/07/16 02:51:27;;;;;;;3.20;1.70;;;;;;;23.75;100.00;100147.84;104736;1271;72678;-63
2023/07/16 02:53:54;;;;;;;2.60;1.70;;;;;;;23.68;100.00;100150.90;104501;1265;61316;-63
2023/07/16 02:56:21;;;;;;;4.90;2.20;;;;;;;23.60;100.00;100152.30;104621;1265;61306;-64
2023/07/16 02:58:48;;;;;;;3.70;1.70;;;;;;;23.86;100.00;100148.80;104663;1270;74790;-64
2023/07/16 03:01:15;;;;;;;5.20;2.20;;;;;;;24.33;100.00;100144.70;105622;1265;67615;-68
2023/07/16 03:03:42;;;;;;;4.10;2.00;;;;;;;24.77;100.00;100142.48;104857;1268;71976;-65
2023/07/16 03:06:09;;;;;;;3.20;1.70;;;;;;;25.12;100.00;100143.34;104584;1265;61402;-63
2023/07/16 03:08:36;;;;;;;3.60;1.80;;;;;;;25.53;100.00;100151.75;104487;1269;61251;-70
2023/07/16 03:11:03;;;;;;;3.80;1.70;;;;;;;25.92;100.00;100151.52;104561;1269;74284;-65
2023/07/16 03:13:31;;;;;;;3.80;1.90;;;;;;;26.47;100.00;100152.75;104612;1266;68278;-64
2023/07/16 03:15:58;;;;;;;3.20;1.90;;;;;;;27.06;100.00;100149.98;104773;1270;73319;-64
2023/07/16 03:18:29;;;;;;;4.20;2.10;;;;;;;27.63;100.00;100148.63;104525;1272;61367;-63
2023/07/16 03:20:57;;;;;;;;;;;;;;;27.98;98.70;100149.52;105049;1265;61158;-69
2023/07/16 03:23:25;;;;;;;3.60;1.70;;;;;;;28.13;93.10;100153.38;105061;1269;74641;-63
2023/07/16 03:25:52;;;;;;;4.80;1.60;;;;;;;28.23;91.43;100152.19;104565;1265;67477;-61
2023/07/16 03:28:20;;;;;;;5.70;1.80;;;;;;;28.40;86.90;100153.10;104506;1266;71682;-65
2023/07/16 03:30:48;;;;;;;4.20;1.70;;;;;;;28.55;86.19;100153.72;104522;1265;61368;-64
2023/07/16 03:33:15;;;;;;;3.60;1.80;;;;;;;28.82;81.30;100154.27;104521;1269;61287;-68
2023/07/16 03:35:43;;;;;;;4.10;1.90;;;;;;;28.95;78.25;100161.14;104579;1267;75378;-65
2023/07/16 03:38:12;;;;;;;3.70;1.70;;;;;;;29.11;77.77;100157.27;104383;1272;67292;-65
2023/07/16 03:40:39;;;;;;;3.50;1.50;;;;;;;29.44;74.35;100165.73;104484;1267;70905;-64
2023/07/16 03:43:07;;;;;;;4.00;1.60;;;;;;;29.70;69.50;100161.77;105180;1265;63109;-69
2023/07/16 03:45:34;;;;;;;3.80;1.60;;;;;;;29.90;66.39;100168.33;104606;1269;61265;-63
2023/07/16 03:48:02;;;;;;;3.00;1.50;;;;;;;30.02;64.74;100171.79;104645;1270;74677;-63
2023/07/16 03:50:30;;;;;;;5.30;1.70;;;;;;;30.22;63.86;100170.11;104337;1265;67137;-64
2023/07/16 03:52:58;;;;;;;4.00;1.40;;;;;;;30.51;61.75;100172.66;105464;1268;72642;-63
2023/07/16 03:55:25;;;;;;;3.90;2.20;;;;;;;30.85;60.41;100172.89;104427;1266;60164;-63
2023/07/16 03:57:53;;;;;;;3.80;1.50;;;;;;;31.26;57.48;100178.60;104757;1269;61178;-63
2023/07/16 04:00:20;;;;;;;5.00;1.30;;;;;;;31.71;53.45;100174.15;104617;1267;74843;-65
2023/07/16 04:02:49;;;;;;;3.70;1.60;;;;;;;32.08;51.98;100174.30;104602;1266;66955;-63
2023/07/16 04:05:19;;;;;;;3.40;1.60;;;;;;;32.58;49.55;100178.49;105184;1270;73345;-65
2023/07/16 04:07:50;;;;;;;2.90;1.30;;;;;;;33.07;47.11;100180.09;104647;1270;61247;-65
2023/07/16 04:10:17;;;;;;;5.50;1.50;;;;;;;33.64;44.75;100177.21;104541;1270;61219;-62
2023/07/16 04:12:44;;;;;;;3.10;1.60;;;;;;;34.10;42.22;100179.05;104573;1269;66188;-64
2023/07/16 04:15:11;;;;;;;3.50;1.60;;;;;;;34.43;40.55;100186.55;105261;1269;60235;-68
2023/07/16 04:17:39;;;;;;;1.90;1.40;;;;;;;34.81;39.66;100191.80;105396;1269;64083;-63
2023/07/16 04:20:07;;;;;;;3.50;2.00;;;;;;;35.21;38.05;100186.79;104609;1270;61357;-64
2023/07/16 04:22:35;;;;;;;2.80;1.70;;;;;;;35.42;36.90;100191.70;104555;1270;61283;-65
2023/07/16 04:25:03;;;;;;;4.30;1.50;;;;;;;35.55;35.75;100192.10;104563;1265;64914;-70
2023/07/16 04:27:30;;;;;;;3.40;1.70;;;;;;;35.56;35.35;100192.35;104516;1268;66303;-64
2023/07/16 04:29:57;;;;;;;4.50;1.90;;;;;;;35.62;35.14;100192.41;104629;1270;63782;-65
2023/07/16 04:32:24;;;;;;;3.20;1.90;;;;;;;35.70;35.06;100195.52;104566;1270;61411;-64
2023/07/16 04:34:52;;;;;;;3.80;1.90;;;;;;;35.75;34.36;100200.20;104832;1268;61159;-69
2023/07/16 04:37:19;;;;;;;3.90;1.70;;;;;;;35.56;34.81;100204.52;104745;1266;64970;-66
2023/07/16 04:39:46;;;;;;;3.20;1.70;;;;;;;35.63;35.38;100201.64;104801;1266;61359;-63
2023/07/16 04:42:13;;;;;;;4.10;1.90;;;;;;;35.78;34.71;100202.05;104579;1270;63925;-64
2023/07/16 04:44:42;;;;;;;5.30;2.40;;;;;;;36.01;34.15;100201.30;104526;1269;61290;-64
2023/07/16 04:47:09;;;;;;;4.20;1.90;;;;;;;36.37;32.62;100200.25;105517;1268;60491;-69
2023/07/16 04:49:36;;;;;;;2.80;2.00;;;;;;;36.55;31.90;100200.86;104307;1271;66456;-63
2023/07/16 04:52:04;;;;;;;3.30;1.90;;;;;;;36.84;31.73;100198.87;104547;1266;61276;-63
2023/07/16 04:54:41;;;;;;;3.20;1.90;;;;;;;37.28;31.09;100203.27;104586;1268;62825;-63
2023/07/16 04:57:08;;;;;;;2.70;1.80;;;;;;;37.60;29.96;100200.11;104908;1266;61306;-66
2023/07/16 04:59:35;;;;;;;3.20;1.80;;;;;;;37.88;29.13;100200.81;104529;1269;61427;-63
2023/07/16 05:02:05;;;;;;;2.20;1.70;;;;;;;38.18;28.37;100204.55;104555;1268;66301;-64
2023/07/16 05:04:32;;;;;;;2.70;1.90;;;;;;;38.03;27.79;100206.45;104353;1271;61381;-65
2023/07/16 05:07:03;;;;;;;2.60;1.90;;;;;;;37.74;28.05;100207.06;104997;1269;62694;-67
2023/07/16 05:09:30;;;;;;;3.40;1.70;;;;;;;37.77;28.09;100207.88;104546;1268;61312;-63
2023/07/16 05:11:58;;;;;;;2.00;1.60;;;;;;;37.81;27.51;100203.51;104390;1270;61290;-65
2023/07/16 05:14:26;;;;;;;3.00;1.70;;;;;;;37.46;27.41;100204.25;104560;1277;66021;-64
2023/07/16 05:16:53;;;;;;;2.50;1.90;;;;;;;37.01;28.03;100201.59;104956;1270;61563;-68
2023/07/16 05:19:21;;;;;;;2.70;1.60;;;;;;;36.91;28.33;100200.39;104306;1268;64540;-63
2023/07/16 05:21:48;;;;;;;2.80;1.70;;;;;;;37.05;28.03;100204.54;104776;1268;61132;-63
2023/07/16 05:24:15;;;;;;;4.30;2.20;;;;;;;37.29;28.13;100206.17;104558;1268;61160;-63
2023/07/16 05:26:43;;;;;;;2.10;1.60;;;;;;;37.56;27.38;100204.27;104619;1268;66153;-67
2023/07/16 05:29:10;;;;;;;2.30;1.60;;;;;;;37.79;27.07;100199.61;104647;1271;61117;-65
2023/07/16 05:31:37;;;;;;;2.10;1.60;;;;;;;38.06;26.73;100200.59;104569;1268;64239;-64
2023/07/16 05:34:04;;;;;;;3.10;1.90;;;;;;;38.27;26.73;100202.92;104631;1268;61121;-64
2023/07/16 05:36:31;;;;;;;2.10;1.60;;;;;;;38.53;26.75;100207.27;104646;1269;61310;-64
2023/07/16 05:38:59;;;;;;;2.10;1.70;;;;;;;38.77;26.07;100207.14;105060;1267;66571;-67
2023/07/16 05:41:26;;;;;;;3.00;2.30;;;;;;;38.82;25.68;100208.83;105199;1267;67985;-64
2023/07/16 05:43:53;;;;;;;3.10;1.90;;;;;;;38.74;25.25;100209.11;104737;1271;71246;-62
2023/07/16 05:46:21;;;;;;;2.60;2.00;;;;;;;38.66;25.21;100213.25;104654;1270;61362;-62
2023/07/16 05:48:48;;;;;;;2.20;1.90;;;;;;;38.84;25.21;100213.52;104567;1268;61190;-63
2023/07/16 05:51:15;;;;;;;2.70;2.00;;;;;;;38.97;24.65;100207.16;104700;1270;64864;-67
2023/07/16 05:53:42;;;;;;;3.10;2.00;;;;;;;38.77;25.01;100203.16;104789;1267;61572;-63
2023/07/16 05:56:10;;;;;;;3.70;2.00;;;;;;;38.84;24.87;100201.60;104924;1271;62601;-64
2023/07/16 05:58:37;;;;;;;4.10;2.10;;;;;;;38.98;24.23;100205.60;104643;1267;61518;-63
2023/07/16 06:01:04;;;;;;;2.40;1.50;;;;;;;38.79;24.34;100209.79;105767;1267;61180;-68
2023/07/16 06:03:31;;;;;;;2.40;2.20;;;;;;;38.70;24.21;100212.59;104763;1265;65958;-68
2023/07/16 06:05:59;;;;;;;1.90;1.70;;;;;;;38.53;24.04;100216.06;104798;1269;61373;-63
2023/07/16 06:08:26;;;;;;;2.80;1.70;;;;;;;38.09;24.42;100215.33;104546;1267;62964;-62
2023/07/16 06:10:53;;;;;;;1.70;1.50;;;;;;;37.91;25.27;100214.39;104519;1271;61353;-62
2023/07/16 06:13:20;;;;;;;2.30;1.70;;;;;;;37.98;25.38;100213.55;104995;1267;61248;-62
2023/07/16 06:15:47;;;;;;;2.60;1.60;;;;;;;37.98;25.02;100209.52;104789;1267;65979;-67
2023/07/16 06:18:14;;;;;;;3.50;1.90;;;;;;;37.80;25.48;100211.11;104716;1269;61141;-63
2023/07/16 06:20:45;;;;;;;2.60;1.40;;;;;;;37.81;25.68;100209.48;104535;1269;62778;-62
2023/07/16 06:23:12;;;;;;;2.60;1.50;;;;;;;38.04;25.47;100212.53;105102;1270;60840;-67
2023/07/16 06:25:48;;;;;;;2.40;1.40;;;;;;;38.41;25.14;100210.73;104935;1266;61378;-67
2023/07/16 06:28:15;;;;;;;2.50;1.80;;;;;;;38.61;24.71;100206.27;104480;1265;66116;-63
2023/07/16 06:30:42;;;;;;;3.50;1.80;;;;;;;38.50;24.99;100208.41;104590;1268;61285;-63
2023/07/16 06:33:09;;;;;;;2.70;1.80;;;;;;;38.22;25.33;100212.06;105597;1268;64111;-67
2023/07/16 06:35:37;;;;;;;2.10;1.70;;;;;;;38.16;25.45;100215.10;104860;1278;61272;-61
2023/07/16 06:38:04;;;;;;;2.40;1.70;;;;;;;38.18;24.88;100212.86;104549;1267;61325;-62
2023/07/16 06:40:31;;;;;;;2.70;1.60;;;;;;;38.08;24.73;100214.69;104699;1269;74677;-65
2023/07/16 06:42:59;;;;;;;4.50;1.40;;;;;;;37.81;24.81;100213.30;104556;1267;61278;-63
2023/07/16 06:45:26;;;;;;;1.70;1.50;;;;;;;37.49;25.26;100217.35;104866;1267;62941;-68
2023/07/16 06:47:53;;;;;;;2.00;1.50;;;;;;;37.27;25.27;100217.46;104859;1271;61287;-65
2023/07/16 06:50:20;;;;;;;2.20;1.50;;;;;;;37.10;25.32;100216.73;104706;1269;61233;-64
2023/07/16 06:52:48;;;;;;;2.00;1.20;;;;;;;36.89;25.83;100216.14;104408;1269;65972;-66
2023/07/16 06:55:15;;;;;;;1.70;1.10;;;;;;;36.58;26.26;100216.80;104592;1269;60004;-68
2023/07/16 06:57:42;;;;;;;2.20;1.50;;;;;;;36.08;26.21;100220.73;104688;1269;62631;-64
2023/07/16 07:00:13;;;;;;;1.60;1.10;;;;;;;35.50;26.79;100222.00;104846;1269;61272;-62
2023/07/16 07:02:39;;;;;;;;;;;;;;;35.30;27.63;100228.17;105030;1267;61339;-65
2023/07/16 07:05:07;;;;;;;4.00;1.70;;;;;;;35.41;27.05;100225.36;105111;1267;65873;-68
2023/07/16 07:07:34;;;;;;;3.70;1.50;;;;;;;35.27;26.87;100222.98;104886;1269;61150;-65
2023/07/16 07:10:01;;;;;;;2.50;1.10;;;;;;;34.97;27.51;100227.57;105122;1270;64192;-64
2023/07/16 07:12:28;;;;;;;2.40;1.10;;;;;;;34.77;28.36;100225.83;104976;1270;61230;-64
2023/07/16 07:14:56;;;;;;;2.50;1.20;;;;;;;34.87;28.71;100228.09;105017;1265;61241;-64
2023/07/16 07:17:23;;;;;;;1.80;1.10;;;;;;;35.02;28.73;100226.19;105339;1270;66072;-68
2023/07/16 07:19:50;;;;;;;2.10;0.90;;;;;;;35.18;28.33;100222.10;104954;1267;61321;-64
2023/07/16 07:22:17;;;;;;;1.60;1.00;;;;;;;35.39;28.01;100219.11;104782;1268;64105;-64
2023/07/16 07:24:49;;;;;;;1.60;0.90;;;;;;;35.63;27.85;100219.59;104776;1270;61374;-64
2023/07/16 07:27:16;;;;;;;2.00;1.10;;;;;;;35.74;28.02;100218.94;105518;1267;61280;-69
2023/07/16 07:29:43;;;;;;;2.40;1.00;;;;;;;35.93;28.40;100223.30;104582;1266;64837;-65
2023/07/16 07:32:10;;;;;;;3.30;1.40;;;;;;;36.18;28.63;100228.41;104595;1267;61398;-65
2023/07/16 07:34:38;;;;;;;3.10;1.30;;;;;;;36.43;28.44;100225.89;104552;1270;63895;-65
2023/07/16 07:37:06;;;;;;;2.60;1.30;;;;;;;36.75;27.18;100223.10;105147;1267;61223;-68
2023/07/16 07:39:33;;;;;;;2.30;1.40;;;;;;;36.69;26.52;100223.30;104204;1267;61261;-66
2023/07/16 07:42:00;;;;;;;1.70;1.30;;;;;;;36.52;27.53;100229.73;104571;1267;65985;-64
2023/07/16 07:44:26;;;;;;;2.30;1.20;;;;;;;36.28;28.30;100232.02;104516;1270;61210;-66
2023/07/16 07:46:54;;;;;;;2.40;1.40;;;;;;;36.07;28.74;100233.39;104476;1267;63928;-67
2023/07/16 07:49:21;;;;;;;2.50;1.00;;;;;;;36.05;28.97;100234.90;104562;1267;61362;-64
2023/07/16 07:51:49;;;;;;;2.50;1.30;;;;;;;35.85;28.36;100235.77;105024;1267;61159;-66
2023/07/16 07:54:18;;;;;;;5.50;1.60;;;;;;;35.44;28.24;100237.66;104777;1266;64747;-65
2023/07/16 07:56:46;;;;;;;2.30;1.10;;;;;;;35.03;28.37;100235.11;104739;1267;61258;-65
2023/07/16 07:59:13;;;;;;;6.00;1.70;;;;;;;34.86;28.38;100230.61;104866;1269;71443;-63
2023/07/16 08:01:41;;;;;;;3.90;1.20;;;;;;;34.66;27.94;100233.67;104997;1270;61358;-67
2023/07/16 08:04:08;;;;;;;1.50;1.00;;;;;;;34.38;28.64;100229.63;104904;1268;61940;-66
2023/07/16 08:06:36;;;;;;;2.40;1.60;;;;;;;34.43;29.42;100225.20;104817;1267;64910;-66
2023/07/16 08:09:03;;;;;;;2.80;1.60;;;;;;;34.57;28.33;100222.73;105170;1270;61292;-67
2023/07/16 08:11:32;;;;;;;2.80;1.50;;;;;;;34.53;28.36;100226.11;104667;1270;63505;-70
2023/07/16 08:13:59;;;;;;;2.10;1.30;;;;;;;34.44;28.48;100220.73;105136;1270;61244;-66
2023/07/16 08:16:27;;;;;;;2.00;1.70;;;;;;;34.45;28.09;100218.73;104809;1267;61147;-64
2023/07/16 08:18:55;;;;;;;1.60;1.10;;;;;;;34.52;28.23;100221.29;104800;1264;64752;-64
2023/07/16 08:21:22;;;;;;;1.90;1.40;;;;;;;34.57;29.02;100221.27;104933;1268;61266;-65
2023/07/16 08:23:49;;;;;;;3.20;1.20;;;;;;;34.78;30.11;100221.20;105131;1264;63111;-64
2023/07/16 08:26:17;;;;;;;4.10;1.80;;;;;;;34.95;30.05;100222.04;104951;1265;61308;-64
2023/07/16 08:28:44;;;;;;;5.40;1.80;;;;;;;35.01;30.08;100223.63;104988;1266;61252;-66
2023/07/16 08:31:12;;;;;;;3.20;1.60;;;;;;;35.07;29.92;100228.27;105367;1265;66062;-64
2023/07/16 08:33:40;;;;;;;2.40;1.60;;;;;;;35.25;29.94;100226.90;105269;1269;61232;-67
2023/07/16 08:36:07;;;;;;;3.40;1.90;;;;;;;35.16;29.21;100224.59;105005;1270;62935;-64
2023/07/16 08:38:34;;;;;;;2.00;1.60;;;;;;;34.61;29.53;100224.70;104859;1270;61251;-66
2023/07/16 08:41:01;;;;;;;2.40;1.30;;;;;;;34.16;30.17;100224.91;105601;1268;61408;-65
2023/07/16 08:43:29;;;;;;;15.50;3.10;;;;;;;33.78;30.63;100224.36;105267;1270;64922;-68
2023/07/16 08:45:56;;;;;;;3.20;1.70;;;;;;;33.69;31.14;100225.39;104904;1267;65661;-66
2023/07/16 08:48:23;;;;;;;2.00;1.40;;;;;;;33.83;30.68;100221.21;105024;1269;73235;-66
2023/07/16 08:50:50;;;;;;;2.10;1.50;;;;;;;33.93;30.34;100213.85;105300;1266;61351;-66
2023/07/16 08:53:18;;;;;;;2.90;1.50;;;;;;;34.10;30.64;100214.27;105108;1264;60172;-66
2023/07/16 08:55:47;;;;;;;2.60;1.70;;;;;;;34.30;30.90;100222.98;105271;1265;66597;-70
2023/07/16 08:58:18;;;;;;;3.10;1.80;;;;;;;34.23;30.36;100221.54;105000;1264;67484;-66
2023/07/16 09:00:45;;;;;;;2.10;1.50;;;;;;;34.18;31.66;100216.45;105251;1267;63168;-65
2023/07/16 09:03:14;;;;;;;2.90;1.40;;;;;;;34.32;31.97;100216.78;105390;1267;61262;-67
2023/07/16 09:05:41;;;;;;;3.90;1.30;;;;;;;34.21;31.55;100217.48;105071;1265;61135;-66
2023/07/16 09:08:09;;;;;;;8.40;2.00;;;;;;;33.69;31.71;100219.59;104931;1266;64661;-67
2023/07/16 09:10:36;;;;;;;2.90;1.50;;;;;;;33.08;33.37;100218.63;104987;1265;65983;-64
2023/07/16 09:13:03;;;;;;;2.50;1.60;;;;;;;32.90;33.21;100218.27;105251;1269;62819;-65
2023/07/16 09:15:30;;;;;;;2.10;1.30;;;;;;;32.91;33.12;100208.05;104987;1265;61299;-70
2023/07/16 09:17:57;;;;;;;1.90;1.30;;;;;;;33.06;33.25;100204.70;104917;1268;61274;-70
2023/07/16 09:20:25;;;;;;;3.40;1.80;;;;;;;33.17;31.83;100207.12;104925;1267;73749;-65
2023/07/16 09:22:55;;;;;;;1.90;1.30;;;;;;;32.96;31.76;100213.77;105179;1265;67643;-66
2023/07/16 09:25:29;;;;;;;2.60;1.30;;;;;;;32.89;32.83;100216.62;105045;1265;72571;-70
2023/07/16 09:28:03;;;;;;;3.10;1.70;;;;;;;33.07;34.44;100212.59;104957;1270;61194;-68
2023/07/16 09:30:34;;;;;;;2.30;1.70;;;;;;;33.55;34.27;100210.46;104864;1268;61340;-66
2023/07/16 09:33:14;;;;;;;2.60;1.40;;;;;;;34.08;33.90;100206.95;104928;1269;75139;-67
2023/07/16 09:35:42;;;;;;;2.40;1.50;;;;;;;34.34;32.40;100211.64;104832;1269;60095;-68
2023/07/16 09:38:09;;;;;;;2.70;1.40;;;;;;;34.51;31.63;100217.47;105025;1270;62914;-66
2023/07/16 09:40:37;;;;;;;2.80;1.50;;;;;;;34.58;31.26;100214.44;104873;1269;61287;-66
2023/07/16 09:43:05;;;;;;;4.10;1.30;;;;;;;34.67;30.55;100210.41;104985;1265;61336;-71
2023/07/16 09:45:33;;;;;;;2.60;1.40;;;;;;;34.59;30.13;100205.31;105202;1265;75474;-67
2023/07/16 09:48:01;;;;;;;1.90;1.40;;;;;;;34.33;30.04;100207.23;104754;1268;61185;-65
2023/07/16 09:50:30;;;;;;;2.60;1.60;;;;;;;34.00;31.58;100202.00;104992;1281;62838;-67
2023/07/16 09:52:57;;;;;;;2.70;1.50;;;;;;;33.75;31.97;100209.52;104959;1266;61225;-67
2023/07/16 09:55:24;;;;;;;2.30;1.50;;;;;;;33.45;32.48;100209.51;105986;1267;61359;-70
2023/07/16 09:57:55;;;;;;;2.60;1.30;;;;;;;33.35;32.90;100209.88;105085;1270;67001;-70
2023/07/16 10:00:21;;;;;;;3.10;1.70;;;;;;;33.29;32.21;100210.45;105006;1267;60588;-66
2023/07/16 10:02:49;;;;;;;1.80;1.20;;;;;;;33.09;31.85;100210.80;104735;1271;72560;-65
2023/07/16 10:05:18;;;;;;;1.80;1.20;;;;;;;32.97;31.60;100211.40;104992;1266;61286;-65
2023/07/16 10:07:51;;;;;;;1.80;1.20;;;;;;;32.96;32.01;100203.58;105021;1264;61159;-68
2023/07/16 10:10:18;;;;;;;1.90;1.40;;;;;;;33.16;32.71;100197.46;104795;1269;66189;-65
2023/07/16 10:13:01;;;;;;;2.30;1.50;;;;;;;33.41;32.18;100198.56;105078;1266;61236;-65
2023/07/16 10:15:29;;;;;;;1.70;1.30;;;;;;;33.58;32.69;100201.75;105082;1267;71133;-66
2023/07/16 10:17:56;;;;;;;2.00;1.40;;;;;;;33.65;31.42;100195.95;104954;1270;61238;-66
2023/07/16 10:20:30;;;;;;;2.10;1.40;;;;;;;33.54;31.57;100196.98;104978;1270;61216;-65
2023/07/16 10:22:57;;;;;;;2.10;1.20;;;;;;;33.51;32.17;100195.05;104688;1268;67409;-66
2023/07/16 10:25:26;;;;;;;2.00;1.10;;;;;;;33.52;32.48;100191.69;105135;1271;61264;-65
2023/07/16 10:27:54;;;;;;;2.30;1.10;;;;;;;33.53;33.22;100195.41;104975;1269;72712;-69
2023/07/16 10:30:22;;;;;;;3.00;1.50;;;;;;;33.60;33.58;100194.26;104787;1269;61363;-65
2023/07/16 10:32:51;;;;;;;2.40;1.70;;;;;;;33.34;33.13;100196.64;104869;1266;61235;-65
2023/07/16 10:35:18;;;;;;;2.40;1.70;;;;;;;32.82;33.95;100200.85;104902;1271;66066;-65
2023/07/16 10:37:45;;;;;;;2.00;1.40;;;;;;;32.46;35.53;100197.29;105208;1270;67221;-66
2023/07/16 10:40:13;;;;;;;2.20;1.50;;;;;;;32.49;37.24;100197.33;104588;1268;63945;-65
2023/07/16 10:42:46;;;;;;;1.90;1.50;;;;;;;32.86;36.73;100198.23;104829;1270;61263;-68
2023/07/16 10:45:13;;;;;;;2.80;1.20;;;;;;;33.12;34.87;100193.56;105058;1265;61242;-68
2023/07/16 10:47:52;;;;;;;2.40;1.40;;;;;;;33.11;33.80;100196.67;105533;1264;66105;-65
2023/07/16 10:50:22;;;;;;;2.20;1.40;;;;;;;33.02;33.43;100196.60;104933;1265;61245;-65
2023/07/16 10:52:54;;;;;;;3.10;1.50;;;;;;;32.89;33.80;100192.66;105040;1265;72745;-67
2023/07/16 10:55:23;;;;;;;4.60;1.70;;;;;;;32.77;34.64;100189.42;104666;1268;60294;-69
2023/07/16 10:57:50;;;;;;;2.10;1.50;;;;;;;32.72;34.29;100197.10;104854;1265;60891;-66
2023/07/16 11:00:17;;;;;;;1.70;1.30;;;;;;;32.81;35.27;100192.48;104941;1269;65991;-65
2023/07/16 11:02:44;;;;;;;2.70;1.50;;;;;;;33.16;34.52;100185.86;105018;1268;61149;-68
2023/07/16 11:05:13;;;;;;;3.70;1.40;;;;;;;33.48;33.83;100183.28;104989;1266;73884;-66
2023/07/16 11:07:45;;;;;;;2.10;1.60;;;;;;;33.49;33.71;100183.09;104799;1267;61343;-70
2023/07/16 11:10:17;;;;;;;2.90;1.40;;;;;;;33.43;34.69;100183.48;104799;1270;61814;-67
2023/07/16 11:12:48;;;;;;;2.50;1.50;;;;;;;33.55;35.23;100191.08;105187;1265;74649;-67
2023/07/16 11:15:15;;;;;;;2.30;1.70;;;;;;;33.77;34.72;100186.88;104954;1265;61347;-67
2023/07/16 11:17:43;;;;;;;3.00;1.50;;;;;;;34.09;34.03;100189.82;105054;1264;62826;-71